Time;durP1;ratioP1;P1;durP2;ratioP2;P2;SDS_P1;SDS_P2;PMS_P1;PMS_P2;Temp;Humidity;BMP_temperature;BMP_pressure;BME280_temperature;BME280_humidity;BME280_pressure;Samples;Min_cycle;Max_cycle;Signal;HPM_P1;HPM_P2
2023/09/08 00:00:38;;;;;;;5.18;3.42;;;;;;;19.51;92.82;101716.56;6342319;28;20435;-75
2023/09/08 00:03:39;;;;;;;4.95;2.95;;;;;;;19.41;93.74;101719.09;6350571;28;20059;-77
2023/09/08 00:06:41;;;;;;;6.68;3.25;;;;;;;19.41;94.05;101711.09;6339913;28;20044;-76
2023/09/08 00:09:44;;;;;;;4.22;2.90;;;;;;;19.31;94.97;101720.75;6350745;28;20435;-76
2023/09/08 00:12:45;;;;;;;5.65;3.10;;;;;;;19.30;95.68;101710.19;6350437;28;20052;-77
2023/09/08 00:15:46;;;;;;;6.15;3.33;;;;;;;19.30;95.23;101705.69;6350255;28;20050;-77
2023/09/08 00:18:48;;;;;;;6.93;3.10;;;;;;;19.34;95.19;101704.50;6350143;28;20058;-77
2023/09/08 00:21:49;;;;;;;4.70;2.88;;;;;;;19.31;95.08;101706.56;6350512;28;20047;-77
2023/09/08 00:24:52;;;;;;;5.75;3.10;;;;;;;19.27;95.55;101704.13;6350156;28;20052;-76
2023/09/08 00:27:53;;;;;;;5.00;2.90;;;;;;;19.24;95.51;101707.00;6350333;28;20048;-77
2023/09/08 00:30:55;;;;;;;5.75;2.80;;;;;;;19.22;95.49;101703.63;6350371;28;20059;-77
2023/09/08 00:33:56;;;;;;;7.20;3.00;;;;;;;19.23;95.15;101704.47;6342578;28;20048;-76
2023/09/08 00:36:57;;;;;;;7.35;3.03;;;;;;;19.21;94.42;101706.38;6341464;28;20050;-76
2023/09/08 00:40:00;;;;;;;6.40;3.53;;;;;;;19.13;95.17;101714.13;6350085;28;20467;-76
2023/09/08 00:43:02;;;;;;;5.72;3.10;;;;;;;19.12;95.77;101715.94;6349889;28;20447;-76
2023/09/08 00:46:03;;;;;;;4.13;2.72;;;;;;;19.04;96.49;101715.66;6346403;28;20048;-76
2023/09/08 00:49:06;;;;;;;6.35;3.10;;;;;;;18.99;96.78;101710.66;6343164;28;20047;-76
2023/09/08 00:52:07;;;;;;;5.78;3.20;;;;;;;18.98;97.29;101713.41;6350022;28;20360;-76
2023/09/08 00:55:10;;;;;;;4.82;3.13;;;;;;;18.95;97.25;101708.34;6349861;28;20043;-76
2023/09/08 00:58:12;;;;;;;4.32;3.00;;;;;;;18.92;97.83;101713.88;6349836;28;20054;-76
2023/09/08 01:01:14;;;;;;;5.50;2.90;;;;;;;18.93;97.70;101713.75;6349927;28;20347;-76
2023/09/08 01:04:15;;;;;;;7.63;3.33;;;;;;;18.90;97.41;101707.81;6349812;28;20056;-77
2023/09/08 01:07:17;;;;;;;5.75;3.47;;;;;;;18.92;97.86;101720.03;6349601;28;20039;-77
2023/09/08 01:10:20;;;;;;;4.80;3.15;;;;;;;18.91;97.17;101706.84;6349762;28;20454;-76
2023/09/08 01:13:21;;;;;;;9.90;3.70;;;;;;;18.86;97.58;101707.19;6349909;28;20059;-76
2023/09/08 01:16:23;;;;;;;6.07;3.30;;;;;;;18.85;97.74;101712.59;6349430;28;20047;-77
2023/09/08 01:19:24;;;;;;;5.13;2.90;;;;;;;18.80;97.69;101710.28;6348829;22;20044;-74
2023/09/08 01:22:46;;;;;;;4.88;2.90;;;;;;;18.81;98.02;101713.81;6330630;28;20352;-74
2023/09/08 01:25:53;;;;;;;5.65;3.17;;;;;;;18.75;98.24;101704.44;6332478;28;20047;-75
2023/09/08 01:28:56;;;;;;;7.75;3.50;;;;;;;18.71;98.63;101705.63;6317180;28;20044;-74
2023/09/08 01:31:58;;;;;;;6.15;3.55;;;;;;;18.66;98.82;101705.06;6319058;28;20055;-74
2023/09/08 01:35:01;;;;;;;6.43;3.63;;;;;;;18.62;98.76;101708.91;6323526;28;20044;-75
2023/09/08 01:38:02;;;;;;;4.97;2.80;;;;;;;18.58;99.13;101700.31;6319874;28;20060;-75
2023/09/08 01:41:05;;;;;;;3.83;2.70;;;;;;;18.58;98.84;101696.81;6319251;28;20044;-76
2023/09/08 01:44:10;;;;;;;6.40;3.45;;;;;;;18.57;99.36;101698.59;6325598;28;20048;-75
2023/09/08 01:47:11;;;;;;;4.78;3.22;;;;;;;18.51;99.87;101696.38;6317362;28;20050;-74
2023/09/08 01:50:13;;;;;;;6.15;3.08;;;;;;;18.52;99.36;101696.25;6322456;28;20391;-74
2023/09/08 01:53:14;;;;;;;4.65;3.05;;;;;;;18.50;99.23;101686.69;6328514;28;20059;-74
2023/09/08 01:56:17;;;;;;;10.77;3.72;;;;;;;18.54;99.79;101688.19;6328146;28;20055;-77
2023/09/08 01:59:18;;;;;;;6.75;3.30;;;;;;;18.52;99.36;101685.59;6328049;28;20059;-77
2023/09/08 02:02:19;;;;;;;4.90;3.13;;;;;;;18.58;98.85;101683.50;6324583;28;20433;-77
2023/09/08 02:05:21;;;;;;;5.50;3.35;;;;;;;18.54;96.98;101682.00;6322887;28;20056;-77
2023/09/08 02:08:22;;;;;;;5.10;3.00;;;;;;;18.50;97.74;101682.22;6327993;28;20047;-77
2023/09/08 02:11:25;;;;;;;3.80;2.78;;;;;;;18.49;98.93;101682.34;6327898;28;20052;-77
2023/09/08 02:14:27;;;;;;;6.18;3.42;;;;;;;18.41;99.45;101682.88;6327933;28;20047;-77
2023/09/08 02:17:28;;;;;;;9.88;3.17;;;;;;;18.46;100.00;101680.75;6327397;28;20048;-69
2023/09/08 02:20:30;;;;;;;6.65;3.58;;;;;;;18.48;99.80;101677.97;6327898;28;20048;-69
2023/09/08 02:23:31;;;;;;;4.93;2.80;;;;;;;18.44;100.00;101689.78;6314757;28;20048;-69
2023/09/08 02:26:34;;;;;;;6.85;3.60;;;;;;;18.42;100.00;101686.38;6320876;28;20048;-69
2023/09/08 02:29:36;;;;;;;6.72;3.08;;;;;;;18.35;100.00;101686.00;6327523;28;20090;-69
2023/09/08 02:32:37;;;;;;;5.55;3.10;;;;;;;18.32;99.34;101683.53;6327312;28;20075;-69
2023/09/08 02:35:39;;;;;;;7.30;3.30;;;;;;;18.34;98.88;101678.09;6327168;28;20056;-69
2023/09/08 02:38:40;;;;;;;5.00;3.20;;;;;;;18.34;99.79;101686.09;6327163;28;20098;-69
2023/09/08 02:41:43;;;;;;;5.00;3.38;;;;;;;18.26;100.00;101678.66;6326166;28;20047;-69
2023/09/08 02:44:44;;;;;;;5.90;3.00;;;;;;;18.26;100.00;101670.69;6319934;28;20131;-69
2023/09/08 02:47:46;;;;;;;5.47;3.42;;;;;;;18.26;100.00;101670.69;6324922;28;20055;-69
2023/09/08 02:50:47;;;;;;;5.50;3.20;;;;;;;18.23;100.00;101674.41;6321130;28;20364;-69
2023/09/08 02:53:49;;;;;;;6.93;3.40;;;;;;;18.23;100.00;101670.88;6318328;28;20040;-69
2023/09/08 02:56:51;;;;;;;8.50;2.97;;;;;;;18.20;100.00;101673.75;6325561;28;20047;-69
2023/09/08 02:59:56;;;;;;;8.65;3.40;;;;;;;18.17;100.00;101676.66;6326844;28;20063;-69
2023/09/08 03:02:57;;;;;;;8.82;3.05;;;;;;;18.15;100.00;101679.41;6318027;28;20044;-69
2023/09/08 03:06:03;;;;;;;7.68;3.80;;;;;;;18.08;100.00;101677.31;6326309;28;20130;-69
2023/09/08 03:09:04;;;;;;;7.03;3.40;;;;;;;18.07;100.00;101679.06;6326437;28;20048;-69
2023/09/08 03:12:07;;;;;;;5.97;3.50;;;;;;;17.96;100.00;101677.19;6326478;28;20058;-69
2023/09/08 03:15:09;;;;;;;5.38;3.28;;;;;;;17.97;100.00;101670.03;6317561;28;20048;-69
2023/09/08 03:18:11;;;;;;;7.03;3.80;;;;;;;17.89;100.00;101673.22;6326359;28;20055;-69
2023/09/08 03:21:15;;;;;;;6.70;3.92;;;;;;;17.89;100.00;101667.91;6326096;28;20056;-69
2023/09/08 03:24:16;;;;;;;7.90;3.40;;;;;;;17.84;100.00;101663.88;6326102;28;20459;-69
2023/09/08 03:27:19;;;;;;;5.78;3.85;;;;;;;17.79;100.00;101666.84;6325734;28;20051;-69
2023/09/08 03:30:20;;;;;;;6.68;3.67;;;;;;;17.80;100.00;101662.38;6326279;28;20052;-69
2023/09/08 03:33:22;;;;;;;6.97;3.45;;;;;;;17.77;100.00;101663.47;6326068;28;20084;-69
2023/09/08 03:36:24;;;;;;;7.50;3.60;;;;;;;17.72;100.00;101652.25;6325431;28;20048;-69
2023/09/08 03:39:26;;;;;;;6.35;3.70;;;;;;;17.64;100.00;101660.75;6317329;28;20048;-69
2023/09/08 03:42:28;;;;;;;8.30;3.42;;;;;;;17.65;100.00;101653.63;6324471;28;20052;-69
2023/09/08 03:45:30;;;;;;;8.50;4.38;;;;;;;17.61;100.00;101660.09;6317744;28;20424;-69
2023/09/08 03:48:31;;;;;;;6.00;3.15;;;;;;;17.62;100.00;101651.16;6321876;28;20055;-69
2023/09/08 03:51:32;;;;;;;7.15;3.40;;;;;;;17.60;100.00;101653.09;6324235;28;20044;-69
2023/09/08 03:54:34;;;;;;;9.45;3.65;;;;;;;17.55;100.00;101650.75;6316987;28;20044;-69
2023/09/08 03:57:37;;;;;;;8.55;3.88;;;;;;;17.52;100.00;101642.13;6325194;28;20355;-70
2023/09/08 04:00:38;;;;;;;8.32;3.70;;;;;;;17.50;100.00;101643.09;6304091;28;20044;-77
2023/09/08 04:03:39;;;;;;;7.85;4.28;;;;;;;17.46;100.00;101636.28;6288212;28;20056;-77
2023/09/08 04:06:42;;;;;;;7.95;3.60;;;;;;;17.43;100.00;101638.28;6275367;28;20353;-77
2023/09/08 04:09:43;;;;;;;5.43;3.00;;;;;;;17.39;100.00;101642.97;6275216;28;20350;-76
2023/09/08 04:12:46;;;;;;;8.65;3.78;;;;;;;17.36;100.00;101642.34;6275398;28;20053;-76
2023/09/08 04:15:47;;;;;;;6.20;3.13;;;;;;;17.32;100.00;101643.50;6274923;28;20055;-77
2023/09/08 04:18:49;;;;;;;8.23;4.85;;;;;;;17.25;100.00;101637.72;6275158;28;20052;-77
2023/09/08 04:21:50;;;;;;;8.05;4.28;;;;;;;17.23;100.00;101639.66;6275234;28;20049;-76
2023/09/08 04:24:53;;;;;;;8.25;3.97;;;;;;;17.23;100.00;101637.84;6275317;28;20056;-76
2023/09/08 04:27:55;;;;;;;7.38;3.97;;;;;;;17.20;100.00;101640.69;6274728;28;20056;-77
2023/09/08 04:30:57;;;;;;;7.07;3.83;;;;;;;17.16;100.00;101644.50;6275106;28;20484;-77
2023/09/08 04:33:58;;;;;;;5.57;3.75;;;;;;;17.16;100.00;101630.38;6301111;28;20048;-77
2023/09/08 04:37:00;;;;;;;7.25;3.60;;;;;;;17.12;100.00;101636.84;6324604;28;20048;-77
2023/09/08 04:40:01;;;;;;;6.15;3.50;;;;;;;17.13;100.00;101641.22;6325056;28;20052;-76
2023/09/08 04:43:04;;;;;;;9.07;4.18;;;;;;;17.12;100.00;101634.19;6324885;28;20129;-76
2023/09/08 04:46:05;;;;;;;6.90;3.63;;;;;;;17.10;100.00;101636.94;6324693;28;20055;-76
2023/09/08 04:49:07;;;;;;;7.53;3.72;;;;;;;17.08;100.00;101646.84;6324693;28;20456;-76
2023/09/08 04:52:08;;;;;;;8.25;4.43;;;;;;;17.03;100.00;101640.09;6324891;28;20052;-76
2023/09/08 04:55:10;;;;;;;9.50;4.40;;;;;;;17.02;100.00;101633.94;6324684;28;20043;-76
2023/09/08 04:58:13;;;;;;;6.63;3.92;;;;;;;16.96;100.00;101635.22;6324887;28;20455;-76
2023/09/08 05:01:14;;;;;;;6.03;3.90;;;;;;;16.95;100.00;101640.63;6324743;28;20048;-76
2023/09/08 05:04:18;;;;;;;6.45;3.60;;;;;;;16.90;100.00;101637.44;6327070;28;20044;-76
2023/09/08 05:07:19;;;;;;;6.72;3.50;;;;;;;16.94;100.00;101637.13;6329127;28;20047;-76
2023/09/08 05:10:21;;;;;;;7.43;4.40;;;;;;;16.92;100.00;101640.81;6329697;28;20051;-76
2023/09/08 05:13:26;;;;;;;6.57;3.55;;;;;;;16.92;100.00;101640.81;6329455;28;20048;-76
2023/09/08 05:16:37;;;;;;;6.78;3.80;;;;;;;16.91;100.00;101639.97;6329018;28;20051;-76
2023/09/08 05:19:39;;;;;;;7.47;4.35;;;;;;;16.91;100.00;101637.31;6329057;28;20048;-77
2023/09/08 05:22:40;;;;;;;9.13;4.30;;;;;;;16.92;100.00;101627.56;6329032;28;20048;-76
2023/09/08 05:25:42;;;;;;;6.25;4.18;;;;;;;16.92;100.00;101624.91;6328647;28;20056;-76
2023/09/08 05:28:45;;;;;;;8.45;4.05;;;;;;;16.93;100.00;101630.09;6328855;28;20048;-77
2023/09/08 05:31:47;;;;;;;7.63;4.07;;;;;;;16.93;100.00;101626.59;6328876;28;20052;-76
2023/09/08 05:34:48;;;;;;;6.88;3.55;;;;;;;16.98;100.00;101627.97;6328659;28;20052;-77
2023/09/08 05:37:49;;;;;;;8.55;3.95;;;;;;;17.04;100.00;101625.91;6328636;28;20044;-76
2023/09/08 05:40:51;;;;;;;7.50;3.88;;;;;;;17.08;100.00;101632.69;6328646;28;20439;-77
2023/09/08 05:43:53;;;;;;;6.05;3.65;;;;;;;17.05;100.00;101632.91;6326567;28;20067;-77
2023/09/08 05:46:55;;;;;;;9.18;4.20;;;;;;;17.07;100.00;101639.81;6319666;28;20048;-77
2023/09/08 05:49:56;;;;;;;7.93;4.22;;;;;;;17.13;100.00;101634.09;6319782;28;20051;-77
2023/09/08 05:52:58;;;;;;;8.05;4.28;;;;;;;17.19;100.00;101639.00;6328344;28;20348;-77
2023/09/08 05:55:59;;;;;;;7.45;4.20;;;;;;;17.21;100.00;101639.75;6328016;28;20059;-77
2023/09/08 05:59:02;;;;;;;6.35;3.97;;;;;;;17.25;100.00;101643.88;6319520;28;20368;-77
2023/09/08 06:02:04;;;;;;;9.32;4.30;;;;;;;17.28;100.00;101644.66;6328101;28;20261;-77
2023/09/08 06:05:05;;;;;;;6.28;3.70;;;;;;;17.36;100.00;101642.34;6327705;28;20428;-77
2023/09/08 06:08:07;;;;;;;8.82;4.22;;;;;;;17.39;100.00;101642.97;6327605;28;20348;-77
2023/09/08 06:11:08;;;;;;;7.20;4.03;;;;;;;17.39;100.00;101636.78;6328080;28;20055;-77
2023/09/08 06:14:11;;;;;;;9.45;4.30;;;;;;;17.43;100.00;101640.94;6327577;28;20048;-76
2023/09/08 06:17:12;;;;;;;8.18;3.97;;;;;;;17.43;100.00;101631.16;6327537;28;20052;-77
2023/09/08 06:20:16;;;;;;;7.35;4.35;;;;;;;17.45;100.00;101625.78;6327821;28;20052;-77
2023/09/08 06:23:21;;;;;;;6.57;3.63;;;;;;;17.52;100.00;101635.00;6319331;28;20059;-76
2023/09/08 06:26:22;;;;;;;6.63;3.22;;;;;;;17.56;100.00;101625.88;6327391;28;20067;-76
2023/09/08 06:29:25;;;;;;;8.07;3.58;;;;;;;17.61;100.00;101625.56;6327318;28;20052;-75
2023/09/08 06:32:27;;;;;;;8.32;3.60;;;;;;;17.64;100.00;101628.84;6327502;28;20129;-76
2023/09/08 06:35:28;;;;;;;6.40;3.45;;;;;;;17.70;100.00;101633.75;6327040;28;20047;-76
2023/09/08 06:38:31;;;;;;;5.72;3.58;;;;;;;17.76;100.00;101632.53;6327304;28;20040;-76
2023/09/08 06:41:32;;;;;;;6.75;3.45;;;;;;;17.77;100.00;101636.88;6323524;28;20052;-76
2023/09/08 06:44:35;;;;;;;7.38;4.00;;;;;;;17.81;100.00;101634.84;6321755;28;20071;-76
2023/09/08 06:47:36;;;;;;;13.43;4.38;;;;;;;17.87;100.00;101634.41;6318398;28;20044;-76
2023/09/08 06:50:38;;;;;;;9.38;3.15;;;;;;;17.92;100.00;101634.94;6318932;28;20040;-76
2023/09/08 06:53:39;;;;;;;4.95;3.28;;;;;;;17.98;100.00;101637.16;6318915;28;20352;-76
2023/09/08 06:56:41;;;;;;;5.47;3.40;;;;;;;18.04;100.00;101639.41;6324098;28;20044;-77
2023/09/08 06:59:43;;;;;;;4.45;3.20;;;;;;;18.16;100.00;101635.00;6326798;28;20135;-77
2023/09/08 07:02:45;;;;;;;8.10;4.13;;;;;;;18.20;100.00;101633.84;6326613;28;20055;-77
2023/09/08 07:05:46;;;;;;;9.82;4.63;;;;;;;18.22;100.00;101634.59;6326481;28;20052;-76
2023/09/08 07:08:49;;;;;;;12.77;7.53;;;;;;;18.27;100.00;101635.13;6326309;28;20360;-76
2023/09/08 07:11:51;;;;;;;7.05;4.00;;;;;;;18.30;100.00;101634.88;6326581;28;20055;-76
2023/09/08 07:14:53;;;;;;;8.20;3.78;;;;;;;18.38;100.00;101635.19;6326251;28;20052;-77
2023/09/08 07:17:55;;;;;;;7.70;3.63;;;;;;;18.46;100.00;101631.97;6326003;28;20040;-76
2023/09/08 07:20:56;;;;;;;6.63;3.28;;;;;;;18.53;100.00;101633.25;6326264;28;20076;-76
2023/09/08 07:23:58;;;;;;;6.53;3.13;;;;;;;18.61;100.00;101633.50;6326391;28;20051;-76
2023/09/08 07:27:00;;;;;;;6.22;3.42;;;;;;;18.65;100.00;101639.47;6325020;28;20047;-77
2023/09/08 07:30:03;;;;;;;6.15;3.40;;;;;;;18.73;100.00;101647.78;6326282;28;20051;-76
2023/09/08 07:33:05;;;;;;;4.70;3.13;;;;;;;18.78;100.00;101642.13;6325232;28;20457;-76
2023/09/08 07:36:08;;;;;;;5.75;3.70;;;;;;;18.81;100.00;101644.56;6318234;28;20051;-76
2023/09/08 07:39:10;;;;;;;5.05;3.38;;;;;;;18.88;100.00;101636.00;6325864;28;20044;-76
2023/09/08 07:42:11;;;;;;;7.03;3.60;;;;;;;18.93;100.00;101641.81;6323201;28;20043;-76
2023/09/08 07:45:14;;;;;;;5.70;3.22;;;;;;;18.98;100.00;101631.66;6317804;28;20040;-76
2023/09/08 07:48:15;;;;;;;5.70;3.50;;;;;;;19.10;100.00;101634.41;6306723;28;20048;-76
2023/09/08 07:51:17;;;;;;;4.47;3.22;;;;;;;19.15;100.00;101641.06;6305884;28;20059;-76
2023/09/08 07:54:18;;;;;;;6.20;3.53;;;;;;;19.22;100.00;101637.00;6343747;22;20390;-69
2023/09/08 07:57:19;;;;;;;4.45;3.17;;;;;;;19.32;100.00;101629.16;6330424;28;20126;-68
2023/09/08 08:00:22;;;;;;;6.57;3.58;;;;;;;19.37;100.00;101628.78;6334686;28;20459;-68
2023/09/08 08:03:23;;;;;;;7.57;3.42;;;;;;;19.48;100.00;101615.47;6336622;28;20355;-68
2023/09/08 08:06:25;;;;;;;5.57;3.25;;;;;;;19.57;100.00;101621.91;6339740;28;20067;-70
2023/09/08 08:09:26;;;;;;;7.05;3.95;;;;;;;19.67;100.00;101620.28;6345458;28;20051;-68
2023/09/08 08:12:28;;;;;;;6.18;3.10;;;;;;;19.77;100.00;101629.28;6350617;28;20055;-69
2023/09/08 08:15:37;;;;;;;5.20;3.42;;;;;;;19.86;100.00;101633.03;6350104;28;20051;-68
2023/09/08 08:18:39;;;;;;;4.50;3.50;;;;;;;19.97;100.00;101620.53;6350612;28;20044;-69
2023/09/08 08:21:41;;;;;;;5.20;3.63;;;;;;;20.07;100.00;101625.16;6350418;28;20055;-68
2023/09/08 08:24:43;;;;;;;8.63;3.35;;;;;;;20.19;100.00;101619.69;6331634;28;20054;-68
2023/09/08 08:27:45;;;;;;;4.25;2.88;;;;;;;20.30;100.00;101617.97;6320399;28;20137;-68
2023/09/08 08:30:48;;;;;;;4.80;3.20;;;;;;;20.38;100.00;101623.53;6325281;28;20051;-68
2023/09/08 08:33:49;;;;;;;8.30;3.58;;;;;;;20.40;100.00;101619.78;6315496;28;20044;-68
2023/09/08 08:36:50;;;;;;;6.72;3.95;;;;;;;20.51;100.00;101613.59;6301986;28;20047;-68
2023/09/08 08:39:52;;;;;;;5.75;3.20;;;;;;;20.61;100.00;101619.88;6325120;28;20051;-68
2023/09/08 08:42:55;;;;;;;7.97;3.60;;;;;;;20.71;100.00;101611.94;6326131;28;20436;-68
2023/09/08 08:45:59;;;;;;;6.68;2.92;;;;;;;20.82;100.00;101619.09;6325836;28;20040;-68
2023/09/08 08:49:03;;;;;;;6.07;3.00;;;;;;;20.89;100.00;101620.28;6315075;28;20369;-69
2023/09/08 08:52:07;;;;;;;5.70;3.17;;;;;;;20.95;100.00;101623.31;6327107;28;20051;-76
2023/09/08 08:55:09;;;;;;;7.57;3.22;;;;;;;21.06;100.00;101618.88;6337196;28;20436;-69
2023/09/08 08:58:10;;;;;;;5.05;3.17;;;;;;;21.16;100.00;101615.28;6338477;28;20047;-68
2023/09/08 09:01:16;;;;;;;11.05;3.35;;;;;;;21.24;100.00;101612.81;6337688;28;20344;-69
2023/09/08 09:04:18;;;;;;;5.88;3.22;;;;;;;21.35;100.00;101606.63;6350360;28;20057;-69
2023/09/08 09:07:21;;;;;;;6.13;3.08;;;;;;;21.45;100.00;101617.38;6334029;28;20044;-69
2023/09/08 09:10:22;;;;;;;4.82;3.10;;;;;;;21.52;100.00;101615.84;6342291;28;20044;-69
2023/09/08 09:13:24;;;;;;;5.38;3.08;;;;;;;21.62;98.27;101610.56;6337924;28;20044;-69
2023/09/08 09:16:27;;;;;;;5.13;3.08;;;;;;;21.76;99.03;101613.75;6339621;28;20051;-69
2023/09/08 09:19:30;;;;;;;8.90;3.55;;;;;;;21.88;98.48;101619.00;6317141;28;20051;-68
2023/09/08 09:22:38;;;;;;;6.50;3.72;;;;;;;21.96;97.08;101616.50;6334476;28;20118;-68
2023/09/08 09:25:40;;;;;;;3.60;2.50;;;;;;;22.03;96.55;101615.84;6323495;28;20046;-71
2023/09/08 09:28:48;;;;;;;6.72;3.35;;;;;;;22.43;91.69;101612.31;6332202;28;20040;-70
2023/09/08 09:31:55;;;;;;;6.15;3.00;;;;;;;22.48;91.67;101601.19;6346791;28;20063;-70
2023/09/08 09:35:00;;;;;;;5.13;2.72;;;;;;;22.42;91.88;101604.41;6344093;28;20043;-68
2023/09/08 09:38:03;;;;;;;7.93;2.85;;;;;;;22.43;93.78;101609.63;6333258;28;20459;-70
2023/09/08 09:41:05;;;;;;;3.42;2.63;;;;;;;22.50;93.05;101599.22;6314783;28;20063;-69
2023/09/08 09:44:06;;;;;;;3.35;2.63;;;;;;;22.59;91.67;101603.75;6322473;28;20052;-67
2023/09/08 09:47:13;;;;;;;5.07;3.30;;;;;;;22.72;90.68;101592.78;6311089;28;20135;-73
2023/09/08 09:50:14;;;;;;;6.93;3.40;;;;;;;22.89;90.33;101592.09;6325071;28;20177;-73
2023/09/08 09:53:17;;;;;;;5.80;2.70;;;;;;;22.98;89.33;101593.06;6328042;28;20051;-76
2023/09/08 09:56:19;;;;;;;4.70;2.55;;;;;;;23.01;89.58;101588.28;6316529;28;20059;-75
2023/09/08 09:59:21;;;;;;;4.78;3.08;;;;;;;23.16;89.16;101594.03;6317316;28;20048;-73
2023/09/08 10:02:25;;;;;;;4.40;2.63;;;;;;;23.24;87.89;101591.50;6315909;28;20062;-68
2023/09/08 10:05:28;;;;;;;7.15;2.88;;;;;;;23.21;88.21;101601.66;6318702;28;20068;-70
2023/09/08 10:08:32;;;;;;;4.63;2.75;;;;;;;23.29;85.95;101591.06;6319268;28;20301;-70
2023/09/08 10:11:39;;;;;;;5.57;2.45;;;;;;;23.31;86.97;101589.09;6314294;28;20043;-76
2023/09/08 10:14:42;;;;;;;5.95;3.08;;;;;;;23.35;86.02;101581.63;6316186;28;20044;-79
2023/09/08 10:17:46;;;;;;;3.03;2.30;;;;;;;23.54;82.34;101579.72;6317249;28;20914;-78
2023/09/08 10:20:49;;;;;;;9.20;2.63;;;;;;;23.69;80.12;101574.75;6316214;28;20048;-78
2023/09/08 10:23:58;;;;;;;5.53;2.10;;;;;;;23.74;79.72;101574.31;6315754;28;20356;-78
2023/09/08 10:27:05;;;;;;;3.85;2.50;;;;;;;23.92;79.20;101569.00;6320875;28;20048;-78
2023/09/08 10:30:07;;;;;;;3.63;2.25;;;;;;;24.06;78.99;101573.88;6336433;28;20176;-78
2023/09/08 10:33:11;;;;;;;4.03;2.92;;;;;;;24.14;76.25;101568.59;6315182;28;20043;-79
2023/09/08 10:36:13;;;;;;;4.15;2.78;;;;;;;24.22;73.36;101567.84;6316969;28;20052;-78
2023/09/08 10:39:38;;;;;;;4.55;2.97;;;;;;;24.47;74.16;101553.69;6310812;28;20185;-78
2023/09/08 10:42:41;;;;;;;5.18;2.47;;;;;;;24.60;69.81;101560.53;6312462;28;20040;-78
2023/09/08 10:45:42;;;;;;;2.83;2.00;;;;;;;24.64;70.22;101560.09;6312519;28;20055;-78
2023/09/08 10:48:45;;;;;;;3.65;2.60;;;;;;;24.63;70.21;101560.25;6312185;28;20050;-81
2023/09/08 10:51:49;;;;;;;3.58;2.25;;;;;;;24.71;70.38;101552.25;6317889;28;20047;-77
2023/09/08 10:54:51;;;;;;;3.10;2.15;;;;;;;24.83;69.98;101550.16;6323791;28;20040;-79
2023/09/08 10:57:55;;;;;;;6.68;2.33;;;;;;;25.00;66.75;101557.38;6315818;28;20040;-78
2023/09/08 11:01:01;;;;;;;3.45;2.33;;;;;;;25.02;65.82;101548.13;6316970;28;20048;-77
2023/09/08 11:04:08;;;;;;;4.13;2.03;;;;;;;25.10;67.35;101552.75;6323323;28;20088;-77
2023/09/08 11:07:10;;;;;;;2.85;1.75;;;;;;;25.38;64.83;101555.31;6323200;28;20051;-77
2023/09/08 11:10:12;;;;;;;3.95;2.00;;;;;;;25.64;61.30;101557.97;6322504;28;20040;-79
2023/09/08 11:13:14;;;;;;;3.88;1.98;;;;;;;25.81;60.90;101557.09;6323491;28;20052;-78
2023/09/08 11:16:16;;;;;;;3.00;2.33;;;;;;;25.99;57.64;101555.16;6333849;28;20040;-77
2023/09/08 11:19:18;;;;;;;2.83;1.80;;;;;;;26.17;57.55;101546.94;6326107;28;20211;-78
2023/09/08 11:22:28;;;;;;;2.50;1.77;;;;;;;26.34;56.56;101546.97;6295713;27;20420;-81
2023/09/08 11:25:29;;;;;;;4.32;2.15;;;;;;;26.48;55.96;101543.66;6272806;28;20049;-76
2023/09/08 11:28:31;;;;;;;4.20;2.40;;;;;;;26.62;55.29;101543.03;6268102;28;20052;-76
2023/09/08 11:31:34;;;;;;;3.60;1.83;;;;;;;26.71;56.76;101536.63;6276074;28;20052;-78
2023/09/08 11:34:36;;;;;;;2.55;2.00;;;;;;;26.84;55.19;101541.50;6267548;28;20087;-77
2023/09/08 11:37:40;;;;;;;2.55;1.80;;;;;;;27.00;55.86;101536.09;6278645;28;20582;-75
2023/09/08 11:40:42;;;;;;;2.13;1.70;;;;;;;27.23;53.50;101543.53;6280087;28;20068;-78
2023/09/08 11:43:43;;;;;;;3.80;2.25;;;;;;;27.40;53.38;101536.25;6262533;28;20060;-78
2023/09/08 11:46:45;;;;;;;3.42;2.00;;;;;;;27.77;51.91;101532.94;6255703;28;20438;-76
2023/09/08 11:49:46;;;;;;;3.88;1.90;;;;;;;28.10;50.66;101527.34;6245537;28;20446;-75
2023/09/08 11:52:51;;;;;;;3.28;2.13;;;;;;;28.31;50.89;101527.56;6257998;28;20140;-76
2023/09/08 11:55:52;;;;;;;2.20;1.90;;;;;;;28.52;52.12;101516.97;6258700;28;20052;-77
2023/09/08 11:58:54;;;;;;;2.80;1.98;;;;;;;28.75;49.33;101519.66;6255419;28;20045;-77
2023/09/08 12:01:56;;;;;;;3.80;2.13;;;;;;;28.91;50.24;101525.94;6260617;28;20071;-77
2023/09/08 12:04:58;;;;;;;2.70;1.98;;;;;;;29.06;47.52;101521.41;6264185;28;20060;-77
2023/09/08 12:08:05;;;;;;;2.50;1.35;;;;;;;29.22;47.99;101525.84;6268411;28;20434;-77
2023/09/08 12:11:08;;;;;;;2.85;1.67;;;;;;;29.39;47.04;101524.66;6267381;28;20453;-77
2023/09/08 12:14:12;;;;;;;2.55;1.80;;;;;;;29.55;47.05;101524.47;6267956;28;20515;-77
2023/09/08 12:17:16;;;;;;;2.78;1.63;;;;;;;29.68;47.52;101529.22;6268696;28;20270;-75
2023/09/08 12:20:19;;;;;;;3.08;1.88;;;;;;;29.79;48.11;101512.47;6269782;28;20041;-75
2023/09/08 12:23:23;;;;;;;5.45;1.92;;;;;;;29.95;44.18;101519.56;6270677;28;20056;-75
2023/09/08 12:26:26;;;;;;;4.45;2.47;;;;;;;30.07;44.46;101517.22;6270500;28;20056;-76
2023/09/08 12:29:28;;;;;;;4.80;2.10;;;;;;;30.19;44.92;101518.41;6270603;28;20361;-76
2023/09/08 12:32:32;;;;;;;4.18;2.25;;;;;;;30.36;46.90;101519.00;6261454;28;20050;-76
2023/09/08 12:35:34;;;;;;;3.50;2.10;;;;;;;30.41;42.43;101524.69;6253524;28;20081;-75
2023/09/08 12:38:37;;;;;;;3.08;1.90;;;;;;;30.63;45.15;101517.38;6254010;28;20053;-75
2023/09/08 12:41:39;;;;;;;4.65;1.67;;;;;;;30.65;43.52;101504.44;6253675;28;20045;-76
2023/09/08 12:44:41;;;;;;;2.92;2.05;;;;;;;30.81;45.62;101506.09;6253424;28;20049;-77
2023/09/08 12:47:43;;;;;;;2.75;2.03;;;;;;;30.86;43.75;101502.78;6253442;28;20392;-78
2023/09/08 12:50:45;;;;;;;2.45;1.80;;;;;;;30.93;44.30;101506.38;6254213;28;20433;-75
2023/09/08 12:53:48;;;;;;;3.80;2.08;;;;;;;31.24;42.98;101508.66;6253785;28;20052;-75
2023/09/08 12:56:50;;;;;;;3.55;1.70;;;;;;;31.39;41.66;101505.88;6253371;28;20049;-78
2023/09/08 12:59:52;;;;;;;2.65;1.85;;;;;;;31.52;44.10;101509.50;6253425;28;20085;-78
2023/09/08 13:02:53;;;;;;;2.90;1.85;;;;;;;31.52;41.75;101500.50;6253646;28;20096;-78
2023/09/08 13:05:55;;;;;;;3.13;1.92;;;;;;;31.62;41.90;101500.16;6253309;28;20060;-78
2023/09/08 13:08:58;;;;;;;4.70;1.70;;;;;;;31.94;41.55;101506.78;6253372;28;20049;-75
2023/09/08 13:12:00;;;;;;;3.92;2.10;;;;;;;32.02;40.77;101496.56;6253616;28;20046;-75
2023/09/08 13:15:01;;;;;;;4.85;1.58;;;;;;;32.10;39.91;101497.41;6253085;28;20049;-76
2023/09/08 13:18:03;;;;;;;2.95;1.88;;;;;;;32.18;39.90;101489.06;6253335;28;20050;-76
2023/09/08 13:21:04;;;;;;;2.45;1.70;;;;;;;32.19;39.62;101493.44;6253193;28;20045;-77
2023/09/08 13:24:09;;;;;;;5.57;2.03;;;;;;;32.30;38.11;101484.69;6253190;28;20049;-77
2023/09/08 13:27:11;;;;;;;3.05;1.67;;;;;;;32.36;39.46;101483.84;6252816;28;20064;-77
2023/09/08 13:30:15;;;;;;;2.70;1.63;;;;;;;32.45;39.34;101482.63;6252827;28;20054;-77
2023/09/08 13:33:16;;;;;;;2.33;1.52;;;;;;;32.33;38.90;101474.19;6252857;28;20052;-77
2023/09/08 13:36:18;;;;;;;4.90;1.98;;;;;;;32.44;38.12;101456.47;6252458;28;20053;-77
2023/09/08 13:39:20;;;;;;;3.55;2.00;;;;;;;32.50;37.71;101463.78;6252639;28;20445;-77
2023/09/08 13:42:22;;;;;;;3.72;1.63;;;;;;;32.68;37.76;101454.16;6252461;28;20049;-77
2023/09/08 13:45:23;;;;;;;3.15;1.80;;;;;;;32.69;36.99;101450.38;6251189;28;20053;-78
2023/09/08 13:48:25;;;;;;;2.67;1.60;;;;;;;32.92;37.44;101456.25;6252523;28;20055;-77
2023/09/08 13:51:26;;;;;;;2.25;1.70;;;;;;;33.02;34.60;101447.63;6252365;28;20445;-78
2023/09/08 13:54:29;;;;;;;2.03;1.65;;;;;;;33.10;35.07;101438.41;6266467;22;20049;-75
2023/09/08 13:57:30;;;;;;;2.40;1.70;;;;;;;33.16;35.19;101440.25;6251262;28;20365;-75
2023/09/08 14:00:32;;;;;;;1.92;1.33;;;;;;;33.17;36.09;101436.50;6251841;28;20057;-75
2023/09/08 14:03:33;;;;;;;2.97;1.40;;;;;;;33.22;34.48;101437.53;6251991;28;20049;-75